createdAt,value
2022-11-29T00:02:21.581Z,18.23
2022-11-29T00:05:09.703Z,16.65
2022-11-29T00:08:07.015Z,22.45
2022-11-29T00:10:54.570Z,25.27
2022-11-29T00:13:44.271Z,17.27
2022-11-29T00:16:32.616Z,18.80
2022-11-29T00:19:21.671Z,16.17
2022-11-29T00:22:35.008Z,19.00
2022-11-29T00:25:25.989Z,21.30
2022-11-29T00:28:13.932Z,20.70
2022-11-29T00:31:02.097Z,22.52
2022-11-29T00:33:49.851Z,23.20
2022-11-29T00:36:39.625Z,21.95
2022-11-29T00:39:27.850Z,20.05
2022-11-29T00:42:18.857Z,22.60
2022-11-29T00:45:09.486Z,21.67
2022-11-29T00:47:57.454Z,23.17
2022-11-29T00:50:45.433Z,22.45
2022-11-29T00:53:36.349Z,18.92
2022-11-29T00:56:53.575Z,15.93
2022-11-29T00:59:44.290Z,21.42
2022-11-29T01:02:32.410Z,23.25
2022-11-29T01:05:23.164Z,22.35
2022-11-29T01:08:11.647Z,17.38
2022-11-29T01:11:22.568Z,19.70
2022-11-29T01:14:11.814Z,14.73
2022-11-29T01:16:59.704Z,20.52
2022-11-29T01:19:50.770Z,19.20
2022-11-29T01:22:40.480Z,17.23
2022-11-29T01:25:29.358Z,17.80
2022-11-29T01:28:24.841Z,18.92
2022-11-29T01:31:15.798Z,19.60
2022-11-29T01:35:05.761Z,16.98
2022-11-29T01:38:05.624Z,24.23
2022-11-29T01:41:01.243Z,22.05
2022-11-29T01:43:59.790Z,16.50
2022-11-29T01:46:48.958Z,18.90
2022-11-29T01:49:40.672Z,21.85
2022-11-29T01:52:32.310Z,22.85
2022-11-29T01:55:20.893Z,16.50
2022-11-29T01:58:10.528Z,18.17
2022-11-29T02:01:00.568Z,18.40
2022-11-29T02:03:51.031Z,21.60
2022-11-29T02:06:40.220Z,24.17
2022-11-29T02:09:28.673Z,19.17
2022-11-29T02:12:40.523Z,24.42
2022-11-29T02:15:43.750Z,17.23
2022-11-29T02:18:42.150Z,17.67
2022-11-29T02:21:39.646Z,21.75
2022-11-29T02:25:10.191Z,23.15
2022-11-29T02:28:43.092Z,21.15
2022-11-29T02:32:24.428Z,17.90
2022-11-29T02:35:34.500Z,20.25
2022-11-29T02:47:04.169Z,18.80
2022-11-29T02:50:29.655Z,16.75
2022-11-29T02:53:26.821Z,19.98
2022-11-29T02:56:24.435Z,16.73
2022-11-29T02:59:21.700Z,19.65
2022-11-29T03:02:21.247Z,21.95
2022-11-29T03:05:20.417Z,16.88
2022-11-29T03:08:14.983Z,15.52
2022-11-29T03:11:13.925Z,23.73
2022-11-29T03:14:15.837Z,17.60
2022-11-29T03:17:16.810Z,16.40
2022-11-29T03:20:32.543Z,17.60
2022-11-29T03:23:25.990Z,16.98
2022-11-29T03:29:32.358Z,15.98
2022-11-29T03:32:28.434Z,15.77
2022-11-29T03:35:22.077Z,16.25
2022-11-29T03:38:20.335Z,16.23
2022-11-29T03:46:12.935Z,13.77
2022-11-29T03:49:06.439Z,14.45
2022-11-29T03:52:05.264Z,15.70
2022-11-29T03:55:06.560Z,16.75
2022-11-29T03:58:12.272Z,16.50
2022-11-29T04:01:22.593Z,16.98
2022-11-29T04:04:37.572Z,15.05
2022-11-29T04:07:46.931Z,20.00
2022-11-29T04:11:11.790Z,14.15
2022-11-29T04:14:29.020Z,15.65
2022-11-29T04:17:57.035Z,13.77
2022-11-29T04:21:19.468Z,18.73
2022-11-29T04:29:07.887Z,14.00
2022-11-29T04:32:47.707Z,16.13
2022-11-29T04:35:52.725Z,18.20
2022-11-29T04:39:08.889Z,22.38
2022-11-29T04:42:31.703Z,13.10
2022-11-29T05:12:58.815Z,14.43
2022-11-29T05:16:23.034Z,14.77
2022-11-29T05:24:05.279Z,21.42
2022-11-29T05:27:50.904Z,17.30
2022-11-29T05:39:05.280Z,13.82
2022-11-29T05:42:21.375Z,16.45
2022-11-29T05:45:37.050Z,14.50
2022-11-29T05:52:45.339Z,14.02
2022-11-29T05:55:44.140Z,14.40
2022-11-29T05:58:49.666Z,14.45
2022-11-29T06:01:51.247Z,18.98
2022-11-29T06:05:01.253Z,16.83
2022-11-29T06:07:57.643Z,13.95
2022-11-29T06:11:05.938Z,14.50
2022-11-29T06:14:25.133Z,15.90
2022-11-29T06:17:40.548Z,15.45
2022-11-29T06:20:54.800Z,18.60
2022-11-29T06:27:06.280Z,18.45
2022-11-29T06:30:00.558Z,19.35
2022-11-29T06:33:28.981Z,15.77
2022-11-29T06:37:17.384Z,14.18
2022-11-29T06:41:03.168Z,19.05
2022-11-29T06:44:04.067Z,15.05
2022-11-29T06:47:39.866Z,14.40
2022-11-29T06:51:26.772Z,18.10
2022-11-29T06:54:35.994Z,11.90
2022-11-29T06:57:45.394Z,15.50
2022-11-29T07:04:33.882Z,16.08
2022-11-29T07:07:24.896Z,14.18
2022-11-29T07:10:18.143Z,13.40
2022-11-29T07:16:14.727Z,19.35
2022-11-29T07:19:16.534Z,15.68
2022-11-29T07:22:12.856Z,15.32
2022-11-29T07:25:11.548Z,13.15
2022-11-29T07:28:08.160Z,12.63
2022-11-29T07:31:05.916Z,23.58
2022-11-29T07:34:07.716Z,23.85
2022-11-29T07:37:08.210Z,15.07
2022-11-29T07:40:04.482Z,15.18
2022-11-29T07:43:04.155Z,18.88
2022-11-29T07:45:53.951Z,16.48
2022-11-29T07:48:42.144Z,17.50
2022-11-29T07:51:34.589Z,15.75
2022-11-29T07:54:23.026Z,17.07
2022-11-29T07:57:20.804Z,20.55
2022-11-29T08:00:12.551Z,14.63
2022-11-29T08:03:00.604Z,17.92
2022-11-29T08:05:49.039Z,20.40
2022-11-29T08:08:44.003Z,19.73
2022-11-29T08:11:32.578Z,21.40
2022-11-29T08:14:23.617Z,14.80
2022-11-29T08:17:11.653Z,17.45
2022-11-29T08:20:04.291Z,15.57
2022-11-29T08:23:01.106Z,15.85
2022-11-29T08:25:50.538Z,17.73
2022-11-29T08:28:38.667Z,17.63
2022-11-29T08:31:32.333Z,19.27
2022-11-29T08:34:23.468Z,16.83
2022-11-29T08:37:11.800Z,16.65
2022-11-29T08:40:09.080Z,14.30
2022-11-29T08:43:26.412Z,17.40
2022-11-29T08:46:16.911Z,16.75
2022-11-29T08:49:06.875Z,16.27
2022-11-29T08:52:15.243Z,19.23
2022-11-29T08:55:03.427Z,13.35
2022-11-29T08:57:55.209Z,16.45
2022-11-29T09:00:46.765Z,17.65
2022-11-29T09:03:53.880Z,18.63
2022-11-29T09:06:46.271Z,17.33
2022-11-29T09:09:34.305Z,14.43
2022-11-29T09:12:25.995Z,14.77
2022-11-29T09:15:21.378Z,20.48
2022-11-29T09:18:15.679Z,17.45
2022-11-29T09:21:06.252Z,22.02
2022-11-29T09:24:01.762Z,12.95
2022-11-29T09:26:51.741Z,18.60
2022-11-29T09:29:39.727Z,20.77
2022-11-29T09:32:27.589Z,15.60
2022-11-29T09:35:20.508Z,16.85
2022-11-29T09:38:14.882Z,18.58
2022-11-29T09:41:25.030Z,15.38
2022-11-29T09:44:27.826Z,16.42
2022-11-29T09:47:33.731Z,15.40
2022-11-29T09:50:33.612Z,15.57
2022-11-29T09:53:37.985Z,14.38
2022-11-29T09:56:34.469Z,19.17
2022-11-29T09:59:36.200Z,15.18
2022-11-29T10:02:32.483Z,19.33
2022-11-29T10:05:28.907Z,18.38
2022-11-29T10:08:25.715Z,17.30
2022-11-29T10:11:28.188Z,14.27
2022-11-29T10:14:21.876Z,19.03
2022-11-29T10:17:20.366Z,15.32
2022-11-29T10:20:22.558Z,18.38
2022-11-29T10:23:26.566Z,14.45
2022-11-29T10:26:16.666Z,13.95
2022-11-29T10:29:06.193Z,16.52
2022-11-29T10:31:56.835Z,15.45
2022-11-29T10:34:47.761Z,13.60
2022-11-29T10:37:37.746Z,15.82
2022-11-29T10:40:37.247Z,16.88
2022-11-29T10:43:27.168Z,14.82
2022-11-29T10:46:24.992Z,14.77
2022-11-29T10:50:30.315Z,14.23
2022-11-29T10:57:23.378Z,13.63
2022-11-29T11:00:13.376Z,15.25
2022-11-29T11:03:25.732Z,19.55
2022-11-29T11:06:17.737Z,12.38
2022-11-29T11:09:21.731Z,15.93
2022-11-29T11:12:21.896Z,15.65
2022-11-29T11:15:31.213Z,16.02
2022-11-29T11:18:23.556Z,14.93
2022-11-29T11:21:14.631Z,15.23
2022-11-29T11:27:35.660Z,20.55
2022-11-29T11:30:30.809Z,15.52
2022-11-29T11:33:22.299Z,13.00
2022-11-29T11:36:14.119Z,17.02
2022-11-29T11:39:14.074Z,15.70
2022-11-29T11:42:23.945Z,17.77
2022-11-29T11:45:31.230Z,15.50
2022-11-29T11:48:23.771Z,15.35
2022-11-29T11:51:23.201Z,12.27
2022-11-29T11:54:19.152Z,19.13
2022-11-29T11:57:22.732Z,14.20
2022-11-29T12:03:59.203Z,20.60
2022-11-29T12:07:03.012Z,19.42
2022-11-29T12:10:03.771Z,14.02
2022-11-29T12:12:53.337Z,13.63
2022-11-29T12:15:45.256Z,12.65
2022-11-29T12:18:41.836Z,16.17
2022-11-29T12:21:41.657Z,15.00
2022-11-29T12:24:39.159Z,15.57
2022-11-29T12:27:27.110Z,13.13
2022-11-29T12:30:16.530Z,13.48
2022-11-29T12:33:20.078Z,14.43
2022-11-29T12:36:29.568Z,14.55
2022-11-29T12:39:45.535Z,12.30
2022-11-29T12:42:51.795Z,13.85
2022-11-29T12:45:49.571Z,14.93
2022-11-29T12:48:49.162Z,13.55
2022-11-29T12:51:46.738Z,15.70
2022-11-29T12:54:55.989Z,18.77
2022-11-29T12:57:52.648Z,18.13
2022-11-29T13:00:51.293Z,12.88
2022-11-29T13:03:46.003Z,13.13
2022-11-29T13:06:40.890Z,13.07
2022-11-29T13:09:59.391Z,12.75
2022-11-29T13:12:55.961Z,18.17
2022-11-29T13:15:50.022Z,12.95
2022-11-29T13:19:01.108Z,12.05
2022-11-29T13:21:59.380Z,13.32
2022-11-29T13:24:53.726Z,11.15
2022-11-29T13:27:48.521Z,13.77
2022-11-29T13:30:43.597Z,13.10
2022-11-29T13:33:36.041Z,12.52
2022-11-29T13:36:33.211Z,15.38
2022-11-29T13:39:42.888Z,12.13
2022-11-29T13:42:41.471Z,12.90
2022-11-29T13:45:38.580Z,12.60
2022-11-29T13:48:46.835Z,12.23
2022-11-29T13:51:39.162Z,12.82
2022-11-29T13:54:31.299Z,14.55
2022-11-29T13:57:22.402Z,10.82
2022-11-29T14:00:31.952Z,14.52
2022-11-29T14:03:36.261Z,11.65
2022-11-29T14:06:34.340Z,11.15
2022-11-29T14:09:36.521Z,12.68
2022-11-29T14:12:47.056Z,13.57
2022-11-29T14:15:36.339Z,11.88
2022-11-29T14:19:03.381Z,15.00
2022-11-29T14:22:33.813Z,14.85
2022-11-29T14:28:36.507Z,12.40
2022-11-29T14:31:55.625Z,17.00
2022-11-29T14:34:50.352Z,18.92
2022-11-29T14:37:54.347Z,13.68
2022-11-29T14:40:53.574Z,14.98
2022-11-29T14:43:41.975Z,13.52
2022-11-29T14:46:34.201Z,17.85
2022-11-29T14:49:26.523Z,17.45
2022-11-29T14:52:34.660Z,12.60
2022-11-29T14:55:36.502Z,13.27
2022-11-29T14:58:24.712Z,14.20
2022-11-29T15:01:12.668Z,13.27
2022-11-29T15:04:07.484Z,14.80
2022-11-29T15:06:59.536Z,13.63
2022-11-29T15:09:51.824Z,15.13
2022-11-29T15:12:41.041Z,14.05
2022-11-29T15:15:39.185Z,14.15
2022-11-29T15:18:51.320Z,13.18
2022-11-29T15:21:48.614Z,14.05
2022-11-29T15:27:30.147Z,15.25
2022-11-29T15:30:25.030Z,13.23
2022-11-29T15:33:24.408Z,16.30
2022-11-29T15:36:18.394Z,13.90
2022-11-29T15:39:06.412Z,12.65
2022-11-29T15:41:54.371Z,17.48
2022-11-29T15:44:49.348Z,17.40
2022-11-29T15:47:37.338Z,16.95
2022-11-29T15:50:27.481Z,14.93
2022-11-29T15:53:21.217Z,13.88
2022-11-29T15:56:16.384Z,15.20
2022-11-29T15:59:08.965Z,14.90
2022-11-29T16:02:01.732Z,11.50
2022-11-29T16:04:53.420Z,14.45
2022-11-29T16:07:42.375Z,13.82
2022-11-29T16:10:35.990Z,12.77
2022-11-29T16:14:01.554Z,16.17
2022-11-29T16:16:52.578Z,14.45
2022-11-29T16:19:43.050Z,15.15
2022-11-29T16:22:33.756Z,12.80
2022-11-29T16:25:22.046Z,19.02
2022-11-29T16:28:13.606Z,13.98
2022-11-29T16:31:01.713Z,17.08
2022-11-29T16:33:53.934Z,16.35
2022-11-29T16:36:45.548Z,13.20
2022-11-29T16:39:34.326Z,15.63
2022-11-29T16:42:26.029Z,20.05
2022-11-29T16:45:33.453Z,15.02
2022-11-29T16:48:40.887Z,20.65
2022-11-29T16:51:52.194Z,13.10
2022-11-29T16:54:42.796Z,14.38
2022-11-29T16:57:33.787Z,15.60
2022-11-29T17:00:38.309Z,14.00
2022-11-29T17:03:27.081Z,12.35
2022-11-29T17:06:16.965Z,12.93
2022-11-29T17:09:21.550Z,12.30
2022-11-29T17:12:15.187Z,14.50
2022-11-29T17:19:22.707Z,13.48
2022-11-29T17:22:12.118Z,12.05
2022-11-29T17:29:42.782Z,18.23
2022-11-29T17:36:40.748Z,12.55
2022-11-29T17:39:28.902Z,13.60
2022-11-29T17:42:17.183Z,13.00
2022-11-29T17:45:10.055Z,10.70
2022-11-29T17:53:43.605Z,9.98
2022-11-29T17:56:37.134Z,12.27
2022-11-29T17:59:25.806Z,11.77
2022-11-29T18:02:23.969Z,10.82
2022-11-29T18:05:18.288Z,16.15
2022-11-29T18:08:06.268Z,10.82
2022-11-29T18:10:54.379Z,10.05
2022-11-29T18:13:42.783Z,11.82
2022-11-29T18:16:35.729Z,9.93
2022-11-29T18:19:39.440Z,13.18
2022-11-29T18:22:29.555Z,8.82
2022-11-29T18:28:39.187Z,11.27
2022-11-29T18:31:52.011Z,9.82
2022-11-29T18:34:51.672Z,14.50
2022-11-29T18:38:13.926Z,11.32
2022-11-29T18:40:59.489Z,10.35
2022-11-29T18:43:48.392Z,10.98
2022-11-29T18:46:37.738Z,10.77
2022-11-29T18:49:32.208Z,9.30
2022-11-29T18:52:22.565Z,15.05
2022-11-29T18:55:10.543Z,9.70
2022-11-29T18:58:08.248Z,10.00
2022-11-29T19:00:56.489Z,12.02
2022-11-29T19:03:46.237Z,11.68
2022-11-29T19:06:39.673Z,12.05
2022-11-29T19:09:29.779Z,10.35
2022-11-29T19:12:20.499Z,13.02
2022-11-29T19:15:10.722Z,8.93
2022-11-29T19:17:58.615Z,11.10
2022-11-29T19:20:46.693Z,12.82
2022-11-29T19:23:35.832Z,13.25
2022-11-29T19:26:35.425Z,10.77
2022-11-29T19:29:23.398Z,9.02
2022-11-29T19:32:11.521Z,8.68
2022-11-29T19:34:59.576Z,9.35
2022-11-29T19:37:50.515Z,9.77
2022-11-29T19:40:41.526Z,11.27
2022-11-29T19:43:34.180Z,11.65
2022-11-29T19:46:26.361Z,9.63
2022-11-29T19:49:24.167Z,11.25
2022-11-29T19:52:15.240Z,13.68
2022-11-29T19:55:12.451Z,14.23
2022-11-29T19:58:00.583Z,11.23
2022-11-29T20:00:54.016Z,11.15
2022-11-29T20:03:44.507Z,8.88
2022-11-29T20:06:32.817Z,11.10
2022-11-29T20:09:21.745Z,11.52
2022-11-29T20:12:13.205Z,10.75
2022-11-29T20:15:23.015Z,11.07
2022-11-29T20:18:50.428Z,11.15
2022-11-29T20:24:53.386Z,9.77
2022-11-29T20:27:50.832Z,11.82
2022-11-29T20:30:43.009Z,9.48
2022-11-29T20:33:35.588Z,10.77
2022-11-29T20:36:36.981Z,12.13
2022-11-29T20:39:39.520Z,10.50
2022-11-29T20:42:53.776Z,9.55
2022-11-29T20:45:42.320Z,11.48
2022-11-29T20:48:32.454Z,10.95
2022-11-29T20:51:24.452Z,9.70
2022-11-29T20:54:13.233Z,11.38
2022-11-29T20:57:00.976Z,9.65
2022-11-29T20:59:49.341Z,10.38
2022-11-29T21:02:37.671Z,13.32
2022-11-29T21:05:28.029Z,11.52
2022-11-29T21:08:17.471Z,10.82
2022-11-29T21:11:07.912Z,12.18
2022-11-29T21:13:56.097Z,10.35
2022-11-29T21:16:44.558Z,10.88
2022-11-29T21:19:33.216Z,10.40
2022-11-29T21:22:29.388Z,9.90
2022-11-29T21:25:22.721Z,10.30
2022-11-29T21:31:19.095Z,11.30
2022-11-29T21:34:08.403Z,9.45
2022-11-29T21:36:59.275Z,8.90
2022-11-29T21:39:51.053Z,8.50
2022-11-29T21:42:39.079Z,10.55
2022-11-29T21:45:27.230Z,9.40
2022-11-29T21:48:29.309Z,10.10
2022-11-29T21:51:17.656Z,8.32
2022-11-29T21:54:05.750Z,11.38
2022-11-29T21:56:54.907Z,8.00
2022-11-29T21:59:43.116Z,9.48
2022-11-29T22:02:31.439Z,11.25
2022-11-29T22:05:19.268Z,10.85
2022-11-29T22:08:07.525Z,10.18
2022-11-29T22:11:02.797Z,8.48
2022-11-29T22:14:12.674Z,10.20
2022-11-29T22:17:05.214Z,8.70
2022-11-29T22:19:53.011Z,9.27
2022-11-29T22:22:40.834Z,8.38
2022-11-29T22:25:28.933Z,9.05
2022-11-29T22:28:17.052Z,8.60
2022-11-29T22:31:08.637Z,11.02
2022-11-29T22:33:56.856Z,7.57
2022-11-29T22:36:45.055Z,9.30
2022-11-29T22:39:33.290Z,8.60
2022-11-29T22:42:21.137Z,8.27
2022-11-29T22:45:10.903Z,7.65
2022-11-29T22:48:00.286Z,8.50
2022-11-29T22:50:50.087Z,8.27
2022-11-29T22:53:39.968Z,9.48
2022-11-29T22:56:30.790Z,10.77
2022-11-29T22:59:20.523Z,10.52
2022-11-29T23:02:08.608Z,13.23
2022-11-29T23:04:58.042Z,11.52
2022-11-29T23:07:47.341Z,9.82
2022-11-29T23:10:35.365Z,10.93
2022-11-29T23:13:23.998Z,10.38
2022-11-29T23:16:14.313Z,9.23
2022-11-29T23:19:02.953Z,13.68
2022-11-29T23:21:52.276Z,11.00
2022-11-29T23:24:42.718Z,10.63
2022-11-29T23:27:30.674Z,9.45
2022-11-29T23:30:18.773Z,10.23
2022-11-29T23:33:06.551Z,9.52
2022-11-29T23:36:02.127Z,14.75
2022-11-29T23:38:51.417Z,12.98
2022-11-29T23:41:41.084Z,12.40
2022-11-29T23:44:29.083Z,14.18
2022-11-29T23:47:16.948Z,11.65
2022-11-29T23:50:07.447Z,10.85
2022-11-29T23:52:55.578Z,9.70
2022-11-29T23:55:47.600Z,10.88
2022-11-29T23:58:36.205Z,9.63
